Time;durP1;ratioP1;P1;durP2;ratioP2;P2;SDS_P1;SDS_P2;PMS_P1;PMS_P2;Temp;Humidity;BMP_temperature;BMP_pressure;BME280_temperature;BME280_humidity;BME280_pressure;Samples;Min_cycle;Max_cycle;Signal;HPM_P1;HPM_P2
2023/12/07 00:01:34;;;;;;;33.63;14.40;;;3.50;99.90;;;;;;5116213;28;20169;-60
2023/12/07 00:04:01;;;;;;;51.60;16.10;;;3.40;99.90;;;;;;5116398;28;20236;-59
2023/12/07 00:06:26;;;;;;;35.88;14.18;;;3.60;99.90;;;;;;5116344;28;20655;-60
2023/12/07 00:08:52;;;;;;;54.20;15.37;;;3.60;99.90;;;;;;5116105;28;20172;-60
2023/12/07 00:11:18;;;;;;;54.80;15.07;;;3.60;99.90;;;;;;5116299;28;20177;-60
2023/12/07 00:13:43;;;;;;;45.80;14.97;;;3.50;99.90;;;;;;5116236;28;20177;-59
2023/12/07 00:16:09;;;;;;;77.20;17.73;;;3.50;99.90;;;;;;5116588;28;20180;-60
2023/12/07 00:18:35;;;;;;;37.95;14.98;;;3.50;99.90;;;;;;5116130;28;20184;-60
2023/12/07 00:21:01;;;;;;;35.97;14.13;;;3.60;99.90;;;;;;5116293;28;20181;-60
2023/12/07 00:23:27;;;;;;;33.05;13.85;;;3.70;99.90;;;;;;5116119;28;20201;-59
2023/12/07 00:25:53;;;;;;;31.88;15.23;;;3.70;99.90;;;;;;5115964;28;20319;-60
2023/12/07 00:28:18;;;;;;;45.28;16.65;;;3.80;99.90;;;;;;5115640;28;20241;-60
2023/12/07 00:30:44;;;;;;;34.42;15.85;;;3.80;99.90;;;;;;5115775;28;20263;-60
2023/12/07 00:33:10;;;;;;;45.03;14.70;;;3.80;99.90;;;;;;5115837;28;20685;-60
2023/12/07 00:35:35;;;;;;;26.85;14.77;;;3.90;99.90;;;;;;5115821;28;20670;-60
2023/12/07 00:38:02;;;;;;;31.48;15.15;;;3.90;99.90;;;;;;5115739;28;20606;-60
2023/12/07 00:40:27;;;;;;;39.88;15.70;;;3.90;99.90;;;;;;5115770;28;20274;-60
2023/12/07 00:42:53;;;;;;;64.28;15.48;;;3.80;99.90;;;;;;5115489;28;20270;-60
2023/12/07 00:45:19;;;;;;;52.53;15.57;;;3.80;99.90;;;;;;5115598;28;20184;-60
2023/12/07 00:47:45;;;;;;;43.35;15.40;;;3.70;99.90;;;;;;5115595;28;20197;-60
2023/12/07 00:50:14;;;;;;;28.05;14.70;;;3.70;99.90;;;;;;5115608;28;20597;-59
2023/12/07 00:52:40;;;;;;;39.30;15.50;;;3.70;99.90;;;;;;5115472;28;20177;-60
2023/12/07 00:55:06;;;;;;;32.53;15.82;;;3.60;99.90;;;;;;5115774;28;20245;-60
2023/12/07 00:57:32;;;;;;;34.25;15.82;;;3.70;99.90;;;;;;5115919;28;20169;-60
2023/12/07 00:59:57;;;;;;;44.40;17.73;;;3.70;99.90;;;;;;5115720;28;20515;-60
2023/12/07 01:02:23;;;;;;;44.28;17.40;;;3.80;99.90;;;;;;5115634;27;20172;-60
2023/12/07 01:04:48;;;;;;;42.67;17.45;;;3.80;99.90;;;;;;5115477;28;20208;-60
2023/12/07 01:07:14;;;;;;;30.45;16.52;;;3.80;99.90;;;;;;5115572;28;20185;-60
2023/12/07 01:09:40;;;;;;;35.70;17.58;;;3.80;99.90;;;;;;5115522;28;20206;-60
2023/12/07 01:12:05;;;;;;;35.10;17.67;;;3.80;99.90;;;;;;5115752;28;20615;-60
2023/12/07 01:14:32;;;;;;;46.97;20.05;;;3.90;99.90;;;;;;5115492;28;20567;-60
2023/12/07 01:16:57;;;;;;;34.28;17.40;;;3.90;99.90;;;;;;5115056;28;20187;-60
2023/12/07 01:19:25;;;;;;;39.50;19.35;;;3.90;99.90;;;;;;5115297;28;20525;-60
2023/12/07 01:21:50;;;;;;;41.28;20.55;;;3.80;99.90;;;;;;5114961;28;20749;-59
2023/12/07 01:24:16;;;;;;;40.35;19.90;;;3.90;99.90;;;;;;5115160;28;20186;-60
2023/12/07 01:26:42;;;;;;;40.45;22.02;;;3.80;99.90;;;;;;5115207;28;20617;-59
2023/12/07 01:29:08;;;;;;;40.83;21.65;;;3.90;99.90;;;;;;5115406;28;20218;-60
2023/12/07 01:31:33;;;;;;;42.42;20.60;;;3.90;99.90;;;;;;5115101;28;20180;-60
2023/12/07 01:33:59;;;;;;;35.85;19.33;;;4.00;99.90;;;;;;5114878;28;20629;-60
2023/12/07 01:36:25;;;;;;;39.20;20.23;;;4.00;99.90;;;;;;5114956;28;20187;-60
2023/12/07 01:38:50;;;;;;;44.65;21.25;;;4.00;99.90;;;;;;5114806;28;20188;-60
2023/12/07 01:41:16;;;;;;;43.58;20.20;;;4.00;99.90;;;;;;5113728;28;20573;-60
2023/12/07 01:43:48;;;;;;;39.70;21.73;;;4.10;99.90;;;;;;5114761;28;20253;-60
2023/12/07 01:46:15;;;;;;;45.78;21.85;;;4.10;99.90;;;;;;5114752;28;20225;-60
2023/12/07 01:48:42;;;;;;;48.20;21.67;;;4.10;99.90;;;;;;5114762;28;20207;-60
2023/12/07 01:51:08;;;;;;;48.95;23.40;;;4.10;99.90;;;;;;5114683;28;20176;-59
2023/12/07 01:53:34;;;;;;;52.00;23.67;;;4.10;99.90;;;;;;5114644;28;20180;-60
2023/12/07 01:56:00;;;;;;;51.72;23.42;;;4.10;99.90;;;;;;5114300;28;20184;-60
2023/12/07 01:58:25;;;;;;;50.75;23.65;;;4.10;99.90;;;;;;5114557;28;20177;-60
2023/12/07 02:00:52;;;;;;;47.67;22.85;;;4.10;99.90;;;;;;5114257;28;20180;-60
2023/12/07 02:03:18;;;;;;;50.45;23.38;;;4.20;99.90;;;;;;5114440;28;20188;-60
2023/12/07 02:05:48;;;;;;;57.53;24.63;;;4.20;99.90;;;;;;5114358;28;20218;-60
2023/12/07 02:08:14;;;;;;;51.42;24.20;;;4.20;99.90;;;;;;5114158;28;20175;-60
2023/12/07 02:10:40;;;;;;;54.03;24.15;;;4.10;99.90;;;;;;5114374;28;20180;-60
2023/12/07 02:13:06;;;;;;;49.67;23.27;;;4.10;99.90;;;;;;5114381;28;20187;-60
2023/12/07 02:15:32;;;;;;;52.70;24.65;;;4.00;99.90;;;;;;5114353;28;20183;-59
2023/12/07 02:18:20;;;;;;;59.60;25.17;;;4.10;99.90;;;;;;5114331;28;20176;-59
2023/12/07 02:20:51;;;;;;;51.22;23.23;;;4.10;99.90;;;;;;5114271;28;20176;-60
2023/12/07 02:23:18;;;;;;;52.58;23.27;;;4.20;99.90;;;;;;5114109;28;20215;-60
2023/12/07 02:25:50;;;;;;;46.95;22.02;;;4.10;99.90;;;;;;5114164;28;20267;-60
2023/12/07 02:28:17;;;;;;;48.70;23.48;;;4.10;99.90;;;;;;5113923;28;20161;-60
2023/12/07 02:30:42;;;;;;;45.63;21.08;;;4.10;99.90;;;;;;5114085;28;20196;-60
2023/12/07 02:33:08;;;;;;;43.45;22.25;;;4.20;99.90;;;;;;5114057;28;20181;-60
2023/12/07 02:35:36;;;;;;;42.38;21.25;;;4.20;99.90;;;;;;5114060;28;20168;-60
2023/12/07 02:38:02;;;;;;;36.15;19.17;;;4.20;99.90;;;;;;5113971;28;20176;-60
2023/12/07 02:40:29;;;;;;;34.65;17.88;;;4.20;99.90;;;;;;5114130;28;20184;-60
2023/12/07 02:42:56;;;;;;;32.13;17.13;;;4.20;99.90;;;;;;5112820;28;20180;-60
2023/12/07 02:45:22;;;;;;;36.50;18.05;;;4.20;99.90;;;;;;5114009;28;20180;-60
2023/12/07 02:47:48;;;;;;;33.00;18.00;;;4.20;99.90;;;;;;5113949;28;20780;-60
2023/12/07 02:50:14;;;;;;;32.60;17.08;;;4.30;99.90;;;;;;5113930;28;20684;-60
2023/12/07 02:52:40;;;;;;;34.15;19.10;;;4.30;99.90;;;;;;5117464;28;20172;-60
2023/12/07 02:55:06;;;;;;;35.30;18.48;;;4.30;99.90;;;;;;5117948;28;20695;-60
2023/12/07 02:57:34;;;;;;;32.58;17.27;;;4.30;99.90;;;;;;5118186;28;20177;-60
2023/12/07 03:00:01;;;;;;;32.40;16.52;;;4.30;99.90;;;;;;5118061;28;20176;-60
2023/12/07 03:02:26;;;;;;;33.45;17.75;;;4.30;99.90;;;;;;5118024;28;20188;-60
2023/12/07 03:04:52;;;;;;;30.73;16.35;;;4.30;99.90;;;;;;5117853;28;20286;-60
2023/12/07 03:07:18;;;;;;;29.20;16.35;;;4.30;99.90;;;;;;5117931;28;20263;-60
2023/12/07 03:09:43;;;;;;;30.23;17.52;;;4.40;99.90;;;;;;5117904;28;20267;-60
2023/12/07 03:12:09;;;;;;;27.58;15.27;;;4.40;99.90;;;;;;5117827;28;20176;-60
2023/12/07 03:14:35;;;;;;;28.70;16.35;;;4.30;99.90;;;;;;5117776;28;20183;-60
2023/12/07 03:17:00;;;;;;;27.40;15.65;;;4.30;99.90;;;;;;5117743;28;20267;-60
2023/12/07 03:19:26;;;;;;;25.83;14.80;;;4.30;99.90;;;;;;5117674;27;20654;-60
2023/12/07 03:21:52;;;;;;;24.38;15.07;;;4.30;99.90;;;;;;5117566;28;20284;-60
2023/12/07 03:24:18;;;;;;;28.30;15.20;;;4.40;99.90;;;;;;5117455;28;20247;-60
2023/12/07 03:26:43;;;;;;;25.67;14.27;;;4.30;99.90;;;;;;5117531;28;20260;-60
2023/12/07 03:29:10;;;;;;;25.02;13.88;;;4.20;99.90;;;;;;5117499;28;20181;-60
2023/12/07 03:31:35;;;;;;;24.20;15.65;;;4.30;99.90;;;;;;5117222;27;20204;-60
2023/12/07 03:34:01;;;;;;;25.75;14.85;;;4.30;99.90;;;;;;5117404;28;20640;-60
2023/12/07 03:36:27;;;;;;;25.45;15.13;;;4.30;99.90;;;;;;5117394;28;20176;-60
2023/12/07 03:38:53;;;;;;;22.95;13.52;;;4.20;99.90;;;;;;5117234;28;20184;-60
2023/12/07 03:41:19;;;;;;;24.27;14.77;;;4.30;99.90;;;;;;5117020;28;20648;-60
2023/12/07 03:43:44;;;;;;;24.13;14.40;;;4.30;99.90;;;;;;5117146;28;20209;-60
2023/12/07 03:46:10;;;;;;;24.30;14.75;;;4.30;99.90;;;;;;5117220;28;20187;-60
2023/12/07 03:48:36;;;;;;;26.52;15.27;;;4.40;99.90;;;;;;5116837;28;20176;-60
2023/12/07 03:51:02;;;;;;;29.35;16.58;;;4.40;99.90;;;;;;5117108;28;20180;-60
2023/12/07 03:53:28;;;;;;;29.45;16.75;;;4.40;99.90;;;;;;5117023;28;20184;-60
2023/12/07 03:55:55;;;;;;;28.77;16.48;;;4.30;99.90;;;;;;5116996;28;20545;-60
2023/12/07 03:58:20;;;;;;;25.55;16.00;;;4.30;99.90;;;;;;5116996;28;20176;-60
2023/12/07 04:00:46;;;;;;;28.35;16.38;;;4.20;99.90;;;;;;5117176;28;20188;-60
2023/12/07 04:03:12;;;;;;;26.67;16.83;;;4.10;99.90;;;;;;5115663;28;20287;-59
2023/12/07 04:05:38;;;;;;;23.48;14.95;;;4.10;99.90;;;;;;5116504;28;20306;-60
2023/12/07 04:08:05;;;;;;;26.08;14.93;;;4.20;99.90;;;;;;5116454;28;20626;-60
2023/12/07 04:10:31;;;;;;;25.80;14.63;;;4.20;99.90;;;;;;5116656;28;20180;-60
2023/12/07 04:12:56;;;;;;;26.40;14.88;;;4.20;99.90;;;;;;5116660;28;20218;-60
2023/12/07 04:15:22;;;;;;;24.50;15.23;;;4.10;99.90;;;;;;5116576;28;20180;-60
2023/12/07 04:17:48;;;;;;;27.58;15.00;;;4.20;99.90;;;;;;5116505;28;20185;-60
2023/12/07 04:20:14;;;;;;;26.20;14.27;;;4.20;99.90;;;;;;5115427;28;20630;-60
2023/12/07 04:22:41;;;;;;;21.95;14.27;;;4.20;99.90;;;;;;5116565;28;20313;-60
2023/12/07 04:25:07;;;;;;;26.33;14.23;;;4.10;99.90;;;;;;5116377;28;20200;-59
2023/12/07 04:27:34;;;;;;;26.40;14.32;;;4.10;99.90;;;;;;5116576;28;20226;-60
2023/12/07 04:29:59;;;;;;;26.70;13.98;;;4.20;99.90;;;;;;5116332;27;20164;-59
2023/12/07 04:32:25;;;;;;;24.77;15.00;;;4.20;99.90;;;;;;5116337;28;20641;-60
2023/12/07 04:34:51;;;;;;;26.58;14.63;;;4.10;99.90;;;;;;5116135;28;20192;-60
2023/12/07 04:37:17;;;;;;;26.48;14.18;;;4.10;99.90;;;;;;5116186;28;20198;-60
2023/12/07 04:39:43;;;;;;;26.50;15.13;;;4.20;99.90;;;;;;5116142;28;20204;-59
2023/12/07 04:42:08;;;;;;;25.88;14.65;;;4.20;99.90;;;;;;5116129;28;20176;-60
2023/12/07 04:44:34;;;;;;;27.33;14.90;;;4.30;99.90;;;;;;5115984;28;20198;-59
2023/12/07 04:47:00;;;;;;;22.40;13.75;;;4.30;99.90;;;;;;5115798;28;20725;-60
2023/12/07 04:49:26;;;;;;;28.65;14.93;;;4.20;99.90;;;;;;5116020;28;20173;-59
2023/12/07 04:51:52;;;;;;;27.60;15.48;;;4.20;99.90;;;;;;5115875;27;20278;-60
2023/12/07 04:54:17;;;;;;;22.52;13.65;;;4.20;99.90;;;;;;5115943;28;20208;-60
2023/12/07 04:56:43;;;;;;;25.83;14.98;;;4.30;99.90;;;;;;5115683;28;20263;-60
2023/12/07 04:59:12;;;;;;;27.20;16.00;;;4.30;99.90;;;;;;5115727;28;20521;-59
2023/12/07 05:01:38;;;;;;;23.88;14.23;;;4.40;99.90;;;;;;5115759;28;20181;-60
2023/12/07 05:04:04;;;;;;;23.55;13.27;;;4.40;99.90;;;;;;5115570;28;20291;-59
2023/12/07 05:06:31;;;;;;;21.45;13.65;;;4.20;99.90;;;;;;5115636;28;20176;-60
2023/12/07 05:08:57;;;;;;;24.30;14.90;;;4.30;99.90;;;;;;5115519;28;20286;-60
2023/12/07 05:11:23;;;;;;;24.35;13.75;;;4.20;99.90;;;;;;5115561;28;20176;-59
2023/12/07 05:13:49;;;;;;;25.65;13.73;;;4.30;99.90;;;;;;5115418;28;20182;-60
2023/12/07 05:16:14;;;;;;;22.08;13.90;;;4.30;99.90;;;;;;5115444;27;20247;-60
2023/12/07 05:18:41;;;;;;;22.05;13.85;;;4.30;99.90;;;;;;5115358;28;20199;-59
2023/12/07 05:21:07;;;;;;;22.95;13.50;;;4.30;99.90;;;;;;5115004;28;20199;-59
2023/12/07 05:23:33;;;;;;;21.80;13.35;;;4.40;99.90;;;;;;5115262;28;20208;-59
2023/12/07 05:25:59;;;;;;;24.08;13.63;;;4.40;99.90;;;;;;5115283;28;20265;-59
2023/12/07 05:28:25;;;;;;;22.67;13.23;;;4.30;99.90;;;;;;5115180;28;20179;-59
2023/12/07 05:30:51;;;;;;;23.67;13.82;;;4.40;99.90;;;;;;5114972;28;20183;-59
2023/12/07 05:33:19;;;;;;;22.42;13.77;;;4.30;99.90;;;;;;5115063;28;20196;-60
2023/12/07 05:35:45;;;;;;;24.42;14.85;;;4.40;99.90;;;;;;5113999;28;20210;-59
2023/12/07 05:38:11;;;;;;;22.58;14.93;;;4.40;99.90;;;;;;5113635;28;20168;-59
2023/12/07 05:40:36;;;;;;;20.33;13.80;;;4.40;99.90;;;;;;5115032;28;20339;-59
2023/12/07 05:43:03;;;;;;;20.17;14.27;;;4.40;99.90;;;;;;5114454;28;20583;-59
2023/12/07 05:45:30;;;;;;;24.10;14.00;;;4.40;99.90;;;;;;5114883;28;20167;-59
2023/12/07 05:47:55;;;;;;;23.10;13.80;;;4.50;99.90;;;;;;5113571;28;20534;-59
2023/12/07 05:50:21;;;;;;;26.73;14.13;;;4.40;99.90;;;;;;5114818;28;20172;-59
2023/12/07 05:52:47;;;;;;;24.35;15.82;;;4.50;99.90;;;;;;5114682;28;20184;-59
2023/12/07 05:55:13;;;;;;;24.67;15.77;;;4.50;99.90;;;;;;5114630;28;20178;-59
2023/12/07 05:57:39;;;;;;;22.63;14.77;;;4.50;99.90;;;;;;5114585;28;20251;-60
2023/12/07 06:00:09;;;;;;;21.75;13.55;;;4.50;99.90;;;;;;5114620;28;20176;-62
2023/12/07 06:02:35;;;;;;;23.95;14.48;;;4.50;99.90;;;;;;5114521;28;20180;-62
2023/12/07 06:05:00;;;;;;;23.27;14.98;;;4.50;99.90;;;;;;5114473;28;20211;-62
2023/12/07 06:07:26;;;;;;;21.65;15.32;;;4.40;99.90;;;;;;5114594;28;20173;-62
2023/12/07 06:09:51;;;;;;;18.67;13.35;;;4.40;99.90;;;;;;5114419;28;20183;-62
2023/12/07 06:12:17;;;;;;;22.88;13.48;;;4.40;99.90;;;;;;5114244;28;20222;-62
2023/12/07 06:14:43;;;;;;;25.80;14.80;;;4.40;99.90;;;;;;5114367;28;20175;-62
2023/12/07 06:17:09;;;;;;;21.52;14.38;;;4.40;99.90;;;;;;5114083;28;20533;-62
2023/12/07 06:19:34;;;;;;;20.60;14.07;;;4.40;99.90;;;;;;5114312;28;20202;-62
2023/12/07 06:22:00;;;;;;;20.08;14.32;;;4.40;99.90;;;;;;5114139;28;20246;-62
2023/12/07 06:24:25;;;;;;;20.48;15.35;;;4.40;99.90;;;;;;5114184;28;20204;-62
2023/12/07 06:26:52;;;;;;;19.13;14.15;;;4.40;99.90;;;;;;5113621;28;20172;-62
2023/12/07 06:29:18;;;;;;;19.35;13.05;;;4.30;99.90;;;;;;5114053;28;20185;-61
2023/12/07 06:31:44;;;;;;;19.33;14.20;;;4.40;99.90;;;;;;5114144;28;20171;-62
2023/12/07 06:34:10;;;;;;;21.85;14.27;;;4.40;99.90;;;;;;5114079;28;20184;-62
2023/12/07 06:36:35;;;;;;;25.65;15.10;;;4.30;99.90;;;;;;5114054;28;20218;-62
2023/12/07 06:39:03;;;;;;;23.73;15.38;;;4.40;99.90;;;;;;5113995;28;20217;-62
2023/12/07 06:41:28;;;;;;;20.55;15.65;;;4.40;99.90;;;;;;5113921;28;20180;-61
2023/12/07 06:43:54;;;;;;;24.27;15.27;;;4.40;99.90;;;;;;5113854;28;20521;-62
2023/12/07 06:46:20;;;;;;;21.65;13.77;;;4.40;99.90;;;;;;5113962;28;20169;-62
2023/12/07 06:48:46;;;;;;;20.55;14.57;;;4.30;99.90;;;;;;5113867;28;20176;-62
2023/12/07 06:51:14;;;;;;;25.42;15.23;;;4.40;99.90;;;;;;5114170;28;20188;-62
2023/12/07 06:53:40;;;;;;;20.52;14.85;;;4.40;99.90;;;;;;5113797;28;20181;-62
2023/12/07 06:56:07;;;;;;;22.55;15.20;;;4.40;99.90;;;;;;5113813;28;20645;-61
2023/12/07 06:58:33;;;;;;;24.33;14.88;;;4.40;99.90;;;;;;5113844;28;20263;-62
2023/12/07 07:00:58;;;;;;;24.15;14.55;;;4.40;99.90;;;;;;5113859;28;20593;-62
2023/12/07 07:03:24;;;;;;;22.65;15.00;;;4.50;99.90;;;;;;5112582;28;20201;-62
2023/12/07 07:05:50;;;;;;;21.25;14.43;;;4.40;99.90;;;;;;5113742;28;20621;-62
2023/12/07 07:08:16;;;;;;;19.80;14.43;;;4.30;99.90;;;;;;5113875;28;20579;-62
2023/12/07 07:10:42;;;;;;;19.38;13.10;;;4.30;99.90;;;;;;5113761;28;20181;-61
2023/12/07 07:13:07;;;;;;;20.92;13.32;;;4.30;99.90;;;;;;5113691;28;20204;-62
2023/12/07 07:15:33;;;;;;;18.10;13.52;;;4.20;99.90;;;;;;5113674;28;20177;-62
2023/12/07 07:17:59;;;;;;;20.13;13.55;;;4.10;99.90;;;;;;5113397;28;20176;-62
2023/12/07 07:20:26;;;;;;;20.85;14.80;;;4.00;99.90;;;;;;5113591;28;20637;-64
2023/12/07 07:22:51;;;;;;;29.08;16.13;;;4.00;99.90;;;;;;5113651;28;20243;-63
2023/12/07 07:25:19;;;;;;;30.23;17.33;;;4.00;99.90;;;;;;5113522;28;20668;-61
2023/12/07 07:27:47;;;;;;;23.02;14.90;;;3.90;99.90;;;;;;5113532;28;20604;-62
2023/12/07 07:30:13;;;;;;;22.20;15.40;;;3.90;99.90;;;;;;5113600;28;20653;-62
2023/12/07 07:32:40;;;;;;;19.58;13.70;;;3.90;99.90;;;;;;5113512;28;20235;-62
2023/12/07 07:35:06;;;;;;;21.13;13.18;;;3.90;99.90;;;;;;5113428;28;20176;-62
2023/12/07 07:37:31;;;;;;;19.88;12.50;;;3.80;99.90;;;;;;5114898;28;20184;-62
2023/12/07 07:39:57;;;;;;;20.80;13.13;;;3.80;99.90;;;;;;5117039;28;20173;-62
2023/12/07 07:42:22;;;;;;;20.25;13.73;;;3.80;99.90;;;;;;5117524;28;20179;-62
2023/12/07 07:44:48;;;;;;;22.75;15.05;;;3.70;99.90;;;;;;5117095;28;20550;-62
2023/12/07 07:47:14;;;;;;;26.88;17.30;;;3.70;99.90;;;;;;5117251;28;20172;-62
2023/12/07 07:49:40;;;;;;;29.50;18.25;;;3.70;99.90;;;;;;5117090;28;20183;-62
2023/12/07 07:52:05;;;;;;;36.20;22.25;;;3.60;99.90;;;;;;5117095;28;20202;-62
2023/12/07 07:54:31;;;;;;;24.92;15.05;;;3.60;99.90;;;;;;5117012;28;20183;-63
2023/12/07 07:56:57;;;;;;;25.45;15.20;;;3.80;99.90;;;;;;5117006;28;20195;-62
2023/12/07 07:59:23;;;;;;;25.80;15.23;;;3.70;99.90;;;;;;5116955;28;20256;-62
2023/12/07 08:01:49;;;;;;;26.40;16.70;;;3.70;99.90;;;;;;5117030;28;20619;-62
2023/12/07 08:04:15;;;;;;;21.88;15.40;;;3.70;99.90;;;;;;5116806;28;20207;-62
2023/12/07 08:06:41;;;;;;;22.45;15.27;;;3.80;99.90;;;;;;5116794;28;20172;-62
2023/12/07 08:09:09;;;;;;;25.98;16.73;;;3.90;99.90;;;;;;5116712;28;20202;-62
2023/12/07 08:11:34;;;;;;;30.80;19.88;;;3.80;99.90;;;;;;5116659;28;20184;-62
2023/12/07 08:14:00;;;;;;;29.60;21.15;;;3.80;99.90;;;;;;5116601;28;20204;-62
2023/12/07 08:16:27;;;;;;;23.38;16.17;;;3.90;99.90;;;;;;5116693;28;20533;-63
2023/12/07 08:18:53;;;;;;;21.67;13.85;;;4.00;99.90;;;;;;5116491;28;20267;-62
2023/12/07 08:21:23;;;;;;;22.23;14.77;;;4.00;99.90;;;;;;5116406;28;20256;-62
2023/12/07 08:23:48;;;;;;;21.15;14.35;;;4.10;99.90;;;;;;5116372;28;20204;-62
2023/12/07 08:26:15;;;;;;;22.52;14.23;;;4.10;99.90;;;;;;5116456;28;20182;-62
2023/12/07 08:28:41;;;;;;;22.10;14.35;;;4.10;99.90;;;;;;5116637;28;20532;-61
2023/12/07 08:31:07;;;;;;;24.63;14.82;;;4.10;99.90;;;;;;5116382;28;20184;-61
2023/12/07 08:33:38;;;;;;;20.85;13.55;;;4.10;99.90;;;;;;5116299;28;20187;-62
2023/12/07 08:36:05;;;;;;;21.58;13.23;;;4.10;99.90;;;;;;5116496;28;20228;-64
2023/12/07 08:38:31;;;;;;;19.08;12.98;;;4.10;99.90;;;;;;5116145;28;20266;-62
2023/12/07 08:40:57;;;;;;;20.50;12.88;;;4.20;99.90;;;;;;5116147;28;20735;-62
2023/12/07 08:43:24;;;;;;;18.05;12.52;;;4.20;99.90;;;;;;5115990;28;20214;-62
2023/12/07 08:45:53;;;;;;;20.15;13.40;;;4.10;99.90;;;;;;5116197;27;20172;-62
2023/12/07 08:48:19;;;;;;;22.42;15.05;;;4.20;99.90;;;;;;5115926;28;20179;-61
2023/12/07 08:50:45;;;;;;;22.92;14.15;;;4.30;99.90;;;;;;5115582;28;20176;-61
2023/12/07 08:53:10;;;;;;;22.45;16.35;;;4.30;99.90;;;;;;5115905;28;20506;-62
2023/12/07 08:55:36;;;;;;;20.40;14.02;;;4.30;99.90;;;;;;5116174;28;20723;-62
2023/12/07 08:58:04;;;;;;;19.05;14.35;;;4.50;99.90;;;;;;5115813;28;20179;-62
2023/12/07 09:00:31;;;;;;;20.63;14.23;;;4.50;99.90;;;;;;5115800;28;20201;-61
2023/12/07 09:02:57;;;;;;;23.13;15.85;;;4.50;99.90;;;;;;5115699;28;20569;-62
2023/12/07 09:05:23;;;;;;;20.63;14.13;;;4.50;99.90;;;;;;5115339;28;20585;-62
2023/12/07 09:07:48;;;;;;;20.08;13.38;;;4.60;99.90;;;;;;5115595;28;20169;-61
2023/12/07 09:10:14;;;;;;;20.88;13.85;;;4.50;99.90;;;;;;5115612;28;20180;-62
2023/12/07 09:12:39;;;;;;;21.10;13.45;;;4.50;99.90;;;;;;5115853;28;20252;-62
2023/12/07 09:15:09;;;;;;;17.95;13.30;;;4.60;99.90;;;;;;5115487;28;20188;-61
2023/12/07 09:17:38;;;;;;;20.27;13.15;;;4.60;99.90;;;;;;5115070;28;20175;-62
2023/12/07 09:20:07;;;;;;;19.45;12.68;;;4.60;99.90;;;;;;5115386;28;20176;-62
2023/12/07 09:22:33;;;;;;;19.38;13.15;;;4.60;99.90;;;;;;5115320;28;20320;-62
2023/12/07 09:24:59;;;;;;;16.70;12.13;;;4.70;99.90;;;;;;5115243;28;20211;-62
2023/12/07 09:27:25;;;;;;;18.98;12.75;;;4.70;99.90;;;;;;5114950;28;20176;-62
2023/12/07 09:29:51;;;;;;;18.77;12.35;;;4.80;99.90;;;;;;5114970;28;20264;-62
2023/12/07 09:32:17;;;;;;;18.42;13.07;;;4.80;99.90;;;;;;5115061;28;20210;-61
2023/12/07 09:34:42;;;;;;;17.38;12.55;;;4.80;99.90;;;;;;5115092;28;20223;-62
2023/12/07 09:37:09;;;;;;;24.52;14.27;;;4.80;99.90;;;;;;5115044;28;20172;-62
2023/12/07 09:39:35;;;;;;;26.85;15.88;;;4.80;99.90;;;;;;5114997;28;20180;-62
2023/12/07 09:42:02;;;;;;;23.42;15.27;;;4.70;99.90;;;;;;5115047;28;20177;-62
2023/12/07 09:44:28;;;;;;;25.70;18.90;;;4.70;99.90;;;;;;5114868;28;20729;-61
2023/12/07 09:46:54;;;;;;;21.52;15.50;;;4.70;99.90;;;;;;5114902;28;20592;-62
2023/12/07 09:49:21;;;;;;;20.65;13.93;;;4.70;99.90;;;;;;5114826;28;20222;-62
2023/12/07 09:51:47;;;;;;;18.30;13.40;;;4.70;99.90;;;;;;5114765;27;20655;-61
2023/12/07 09:54:13;;;;;;;24.92;13.10;;;4.90;99.90;;;;;;5114649;28;20698;-62
2023/12/07 09:56:39;;;;;;;18.63;13.18;;;4.70;99.90;;;;;;5113444;28;20196;-62
2023/12/07 09:59:07;;;;;;;20.23;13.20;;;4.80;99.90;;;;;;5114647;28;20525;-62
2023/12/07 10:01:35;;;;;;;22.08;16.30;;;4.80;99.90;;;;;;5113753;28;20179;-62
2023/12/07 10:04:22;;;;;;;20.75;13.68;;;4.90;99.90;;;;;;5114461;28;20235;-62
2023/12/07 10:06:49;;;;;;;17.52;11.80;;;5.00;99.90;;;;;;5114517;28;20578;-62
2023/12/07 10:09:15;;;;;;;24.25;13.18;;;5.10;99.90;;;;;;5114433;28;20208;-62
2023/12/07 10:11:41;;;;;;;18.50;12.52;;;5.30;99.90;;;;;;5114472;28;20233;-61
2023/12/07 10:14:07;;;;;;;19.15;12.93;;;5.40;99.90;;;;;;5114424;28;20212;-61
2023/12/07 10:16:36;;;;;;;19.65;15.07;;;5.50;99.90;;;;;;5114336;28;20195;-61
2023/12/07 10:19:17;;;;;;;19.80;14.15;;;5.60;99.90;;;;;;5114331;28;20164;-62
2023/12/07 10:21:44;;;;;;;19.80;13.45;;;5.60;99.90;;;;;;5113838;28;20277;-61
2023/12/07 10:24:10;;;;;;;18.08;13.05;;;5.80;99.90;;;;;;5114160;28;20212;-61
2023/12/07 10:26:38;;;;;;;21.40;13.88;;;5.70;99.90;;;;;;5114239;28;20175;-62
2023/12/07 10:29:07;;;;;;;19.88;12.25;;;5.80;99.90;;;;;;5114132;28;20625;-62
2023/12/07 10:31:34;;;;;;;15.60;11.77;;;6.00;99.90;;;;;;5114155;28;20180;-62
2023/12/07 10:34:00;;;;;;;16.15;12.65;;;6.00;99.90;;;;;;5114072;28;20188;-62
2023/12/07 10:36:26;;;;;;;14.88;10.98;;;6.00;99.90;;;;;;5114101;28;20246;-62
2023/12/07 10:38:52;;;;;;;16.58;11.23;;;6.10;99.90;;;;;;5114060;28;20251;-61
2023/12/07 10:41:20;;;;;;;14.73;10.52;;;6.10;99.90;;;;;;5113801;28;20177;-61
2023/12/07 10:43:53;;;;;;;16.58;10.85;;;6.10;99.90;;;;;;5113911;28;20200;-61
2023/12/07 10:46:21;;;;;;;14.70;10.93;;;6.00;99.90;;;;;;5113712;28;20157;-61
2023/12/07 10:48:48;;;;;;;14.20;10.57;;;6.00;99.90;;;;;;5113903;28;20177;-62
2023/12/07 10:51:38;;;;;;;14.52;11.43;;;6.10;99.90;;;;;;5113811;28;20533;-61
2023/12/07 10:54:07;;;;;;;13.98;10.82;;;6.10;99.90;;;;;;5113914;28;20169;-62
2023/12/07 10:56:41;;;;;;;16.50;11.85;;;6.10;99.90;;;;;;5113820;28;20619;-61
2023/12/07 10:59:11;;;;;;;14.05;9.93;;;6.10;99.90;;;;;;5113942;28;20164;-62
2023/12/07 11:01:38;;;;;;;15.52;11.57;;;6.00;99.90;;;;;;5113793;28;20176;-62
2023/12/07 11:04:06;;;;;;;13.20;10.07;;;6.00;99.90;;;;;;5113748;28;20192;-62
2023/12/07 11:06:32;;;;;;;14.43;10.15;;;6.00;99.90;;;;;;5113729;28;20179;-61
2023/12/07 11:09:01;;;;;;;14.30;10.52;;;6.10;99.90;;;;;;5113788;28;20205;-62
2023/12/07 11:11:42;;;;;;;14.10;9.93;;;6.00;99.90;;;;;;5113736;28;20259;-62
2023/12/07 11:14:12;;;;;;;13.90;9.95;;;6.00;99.90;;;;;;5117778;28;20310;-62
2023/12/07 11:16:41;;;;;;;14.50;10.40;;;6.00;99.90;;;;;;5117802;27;20168;-62
2023/12/07 11:19:43;;;;;;;18.65;12.23;;;6.00;99.90;;;;;;5117734;28;20173;-61
2023/12/07 11:22:12;;;;;;;24.13;15.52;;;5.90;99.90;;;;;;5117696;28;20222;-61
2023/12/07 11:24:37;;;;;;;17.38;11.88;;;6.00;99.90;;;;;;5117498;28;20734;-62
2023/12/07 11:27:04;;;;;;;15.85;9.85;;;6.10;99.90;;;;;;5117571;28;20181;-62
2023/12/07 11:29:30;;;;;;;15.73;9.10;;;6.20;99.90;;;;;;5117667;28;20256;-61
2023/12/07 11:32:00;;;;;;;12.25;10.00;;;6.10;99.90;;;;;;5117245;28;20502;-62
2023/12/07 11:34:43;;;;;;;12.38;8.77;;;6.20;99.90;;;;;;5117453;28;20191;-62
2023/12/07 11:37:18;;;;;;;14.30;8.90;;;6.30;99.90;;;;;;5117052;28;20161;-61
2023/12/07 11:39:45;;;;;;;12.55;8.48;;;6.30;99.90;;;;;;5117334;28;20176;-61
2023/12/07 11:42:20;;;;;;;13.30;8.98;;;6.30;99.90;;;;;;5117247;28;20177;-61
2023/12/07 11:44:49;;;;;;;11.07;8.63;;;6.30;99.90;;;;;;5117161;28;20249;-61
2023/12/07 11:47:17;;;;;;;13.63;9.52;;;6.40;99.90;;;;;;5117122;28;20271;-61
2023/12/07 11:49:44;;;;;;;12.75;9.35;;;6.40;99.90;;;;;;5117016;28;20180;-60
2023/12/07 11:52:18;;;;;;;67.43;36.97;;;6.50;99.90;;;;;;5116982;28;20170;-61
2023/12/07 11:54:47;;;;;;;25.83;18.52;;;6.50;99.90;;;;;;5116910;28;20205;-61
2023/12/07 11:57:17;;;;;;;11.48;9.30;;;6.40;99.90;;;;;;5117001;28;20173;-61
2023/12/07 11:59:47;;;;;;;12.48;8.75;;;6.40;99.90;;;;;;5116886;28;20169;-61
2023/12/07 12:02:14;;;;;;;13.07;8.43;;;6.50;99.90;;;;;;5116800;28;20184;-61
2023/12/07 12:04:43;;;;;;;10.52;7.97;;;6.50;99.90;;;;;;5116730;28;20276;-62
2023/12/07 12:07:09;;;;;;;11.68;8.30;;;6.50;99.90;;;;;;5116748;28;20521;-61
2023/12/07 12:09:34;;;;;;;10.55;8.40;;;6.50;99.90;;;;;;5116755;28;20242;-61
2023/12/07 12:12:00;;;;;;;13.95;8.45;;;6.40;99.90;;;;;;5116704;28;20179;-61
2023/12/07 12:14:27;;;;;;;11.07;8.50;;;6.50;99.90;;;;;;5115023;28;20177;-61
2023/12/07 12:16:53;;;;;;;9.50;7.55;;;6.40;99.90;;;;;;5116514;28;20169;-61
2023/12/07 12:19:20;;;;;;;12.82;7.97;;;6.60;99.90;;;;;;5116494;28;20173;-61
2023/12/07 12:21:46;;;;;;;12.07;8.32;;;6.50;99.90;;;;;;5116418;28;20232;-61
2023/12/07 12:24:12;;;;;;;11.20;7.88;;;6.60;99.90;;;;;;5115347;28;20209;-61
2023/12/07 12:26:42;;;;;;;17.92;10.27;;;6.50;99.90;;;;;;5116343;28;20195;-61
2023/12/07 12:29:09;;;;;;;20.20;11.68;;;6.60;99.90;;;;;;5116450;27;20251;-61
2023/12/07 12:31:38;;;;;;;35.78;17.02;;;6.60;99.90;;;;;;5116059;28;20665;-61
2023/12/07 12:34:11;;;;;;;14.55;9.30;;;6.60;99.90;;;;;;5116356;28;20175;-61
2023/12/07 12:36:36;;;;;;;57.10;23.50;;;6.40;99.90;;;;;;5116168;28;20550;-61